Time;durP1;ratioP1;P1;durP2;ratioP2;P2;SDS_P1;SDS_P2;PMS_P1;PMS_P2;Temp;Humidity;BMP_temperature;BMP_pressure;BME280_temperature;BME280_humidity;BME280_pressure;Samples;Min_cycle;Max_cycle;Signal;HPM_P1;HPM_P2
2023/01/11 00:01:51;;;;;;;8.50;3.17;;;;;;;8.59;38.71;101655.09;5001275;28;20180;-79
2023/01/11 00:04:28;;;;;;;7.53;3.10;;;;;;;8.30;39.61;101623.38;4995168;28;20038;-78
2023/01/11 00:06:57;;;;;;;7.10;3.30;;;;;;;8.97;39.26;101733.88;4998236;28;20104;-79
2023/01/11 00:09:25;;;;;;;5.15;2.65;;;;;;;8.96;39.31;101737.50;4998563;28;20107;-78
2023/01/11 00:11:54;;;;;;;3.60;2.72;;;;;;;8.92;38.68;101736.81;5013751;28;20049;-78
2023/01/11 00:14:24;;;;;;;4.72;3.00;;;;;;;8.90;39.27;101740.53;5017886;28;20079;-78
2023/01/11 00:16:50;;;;;;;3.97;2.60;;;;;;;8.96;39.72;101743.63;5018847;28;20053;-78
2023/01/11 00:19:17;;;;;;;6.25;2.95;;;;;;;8.95;38.90;101741.06;5016918;28;20048;-78
2023/01/11 00:21:44;;;;;;;5.55;2.85;;;;;;;8.87;38.96;101732.78;5037045;28;20131;-78
2023/01/11 00:24:20;;;;;;;6.68;2.80;;;;;;;8.85;39.17;101732.03;5017466;28;20099;-79
2023/01/11 00:26:46;;;;;;;6.57;3.30;;;;;;;8.59;39.38;101708.03;5017480;28;20059;-78
2023/01/11 00:29:13;;;;;;;9.57;3.47;;;;;;;8.85;39.17;101753.19;5020426;28;20400;-80
2023/01/11 00:31:41;;;;;;;5.70;3.40;;;;;;;8.67;38.91;101737.53;5018594;28;20049;-79
2023/01/11 00:34:11;;;;;;;6.60;3.17;;;;;;;8.68;38.39;101728.63;5019546;28;20056;-79
2023/01/11 00:36:42;;;;;;;6.20;3.25;;;;;;;8.73;38.85;101747.72;5013376;28;20119;-78
2023/01/11 00:39:09;;;;;;;7.35;3.50;;;;;;;8.28;39.56;101672.03;5014315;28;20108;-78
2023/01/11 00:50:04;;;;;;;5.60;3.03;;;;;;;8.09;38.75;101659.94;5017516;28;20099;-79
2023/01/11 00:52:30;;;;;;;4.00;2.83;;;;;;;8.59;40.16;101749.53;5004860;28;20048;-77
2023/01/11 00:55:04;;;;;;;3.83;2.80;;;;;;;8.82;42.57;101761.34;5022000;28;20089;-76
2023/01/11 00:57:31;;;;;;;;;;;;;;;8.84;39.71;101770.91;5018004;28;20095;-77
2023/01/11 00:59:59;;;;;;;5.80;3.10;;;;;;;8.65;40.35;101746.53;5012240;28;19978;-80
2023/01/11 01:02:26;;;;;;;8.57;3.60;;;;;;;8.69;40.78;101775.38;5013527;28;20058;-79
2023/01/11 01:04:55;;;;;;;5.95;3.00;;;;;;;8.44;41.04;101741.59;5012995;28;20045;-78
2023/01/11 01:07:25;;;;;;;5.57;3.10;;;;;;;8.60;41.39;101772.44;5013180;28;20063;-78
2023/01/11 01:09:52;;;;;;;5.35;3.30;;;;;;;8.56;43.11;101767.31;5012954;28;20060;-77
2023/01/11 01:15:06;;;;;;;6.80;3.28;;;;;;;8.39;41.92;101741.00;5015090;28;20499;-78
2023/01/11 01:17:35;;;;;;;5.30;3.10;;;;;;;8.42;42.58;101769.09;5010789;28;20284;-79
2023/01/11 01:20:02;;;;;;;6.97;3.67;;;;;;;8.34;42.93;101770.38;5012870;28;20553;-78
2023/01/11 01:22:29;;;;;;;7.55;3.75;;;;;;;7.93;42.74;101720.84;5010811;28;20080;-78
2023/01/11 01:24:56;;;;;;;6.53;2.97;;;;;;;8.09;42.59;101756.97;5009663;28;20045;-78
2023/01/11 01:27:28;;;;;;;6.38;3.40;;;;;;;7.85;42.71;101730.19;5017822;28;20118;-80
2023/01/11 01:30:05;;;;;;;5.82;3.10;;;;;;;8.00;43.22;101755.69;5011232;28;20060;-77
2023/01/11 01:32:33;;;;;;;6.97;3.67;;;;;;;7.43;43.00;101668.38;5010516;28;20069;-78
2023/01/11 01:35:00;;;;;;;6.30;3.42;;;;;;;7.79;42.23;101736.69;5010475;28;20045;-77
2023/01/11 01:37:29;;;;;;;5.47;3.38;;;;;;;7.74;42.18;101745.81;4995184;28;20061;-76
2023/01/11 01:39:59;;;;;;;7.20;3.47;;;;;;;6.98;42.47;101631.31;4987043;28;20054;-78
2023/01/11 01:42:31;;;;;;;6.43;3.67;;;;;;;7.82;43.26;101754.16;4991694;28;20046;-78
2023/01/11 01:45:27;;;;;;;12.23;3.33;;;;;;;7.62;43.55;101736.81;4988632;28;20553;-81
2023/01/11 01:48:00;;;;;;;5.72;2.85;;;;;;;7.77;44.45;101751.78;4987227;28;20077;-78
2023/01/11 01:50:35;;;;;;;4.75;2.92;;;;;;;7.69;44.56;101751.38;5008837;28;20120;-78
2023/01/11 01:53:08;;;;;;;4.82;3.10;;;;;;;7.31;44.19;101698.97;5001234;28;20381;-77
2023/01/11 01:55:43;;;;;;;6.07;2.95;;;;;;;7.53;44.21;101747.94;4991528;28;20052;-78
2023/01/11 01:58:14;;;;;;;6.13;3.53;;;;;;;7.14;43.92;101689.38;5000876;28;20081;-78
2023/01/11 02:00:44;;;;;;;9.15;3.50;;;;;;;7.36;44.20;101730.41;5011670;28;20415;-79
2023/01/11 02:03:22;;;;;;;5.72;3.25;;;;;;;7.27;44.58;101731.78;5026725;28;20511;-79
2023/01/11 02:05:50;;;;;;;5.70;2.45;;;;;;;6.60;44.25;101631.72;5018806;28;20652;-78
2023/01/11 02:08:34;;;;;;;9.52;3.47;;;;;;;7.13;43.91;101739.63;5017612;28;20079;-77
2023/01/11 02:11:28;;;;;;;9.30;3.33;;;;;;;7.19;43.35;101747.22;5020071;28;20045;-78
2023/01/11 02:14:09;;;;;;;4.38;2.65;;;;;;;7.12;43.33;101743.22;5036506;28;20045;-79
2023/01/11 02:16:37;;;;;;;5.93;2.97;;;;;;;7.25;42.78;101755.63;5051369;28;20049;-78
2023/01/11 02:19:08;;;;;;;4.80;2.67;;;;;;;7.18;42.73;101738.44;5018020;28;20052;-79
2023/01/11 02:21:53;;;;;;;8.10;3.63;;;;;;;7.14;42.98;101729.00;5033505;28;20041;-78
2023/01/11 02:24:52;;;;;;;7.20;2.40;;;;;;;7.41;43.57;101774.13;5017491;28;20041;-79
2023/01/11 02:27:57;;;;;;;4.95;2.55;;;;;;;7.39;43.57;101759.28;4997675;28;20045;-80
2023/01/11 02:30:36;;;;;;;3.58;2.25;;;;;;;6.76;43.69;101658.06;5017561;28;20085;-78
2023/01/11 02:33:17;;;;;;;4.63;2.95;;;;;;;6.80;44.76;101675.44;5015394;28;20056;-77
2023/01/11 02:36:07;;;;;;;5.05;2.67;;;;;;;6.66;44.09;101650.78;5015267;28;20311;-77
2023/01/11 02:39:01;;;;;;;3.78;2.80;;;;;;;7.31;44.18;101738.59;5015657;28;20050;-79
2023/01/11 02:47:28;;;;;;;3.92;2.60;;;;;;;7.20;43.22;101699.56;5011759;28;20084;-79
2023/01/11 02:50:20;;;;;;;4.30;2.83;;;;;;;7.41;43.64;101733.66;5012449;28;20293;-78
2023/01/11 02:52:54;;;;;;;6.05;3.20;;;;;;;7.37;44.08;101740.03;4998820;28;20458;-79
2023/01/11 02:55:27;;;;;;;5.55;2.25;;;;;;;7.18;44.18;101695.31;5014882;28;20558;-78
2023/01/11 02:58:00;;;;;;;5.65;2.70;;;;;;;7.34;44.66;101729.66;5017337;28;20340;-80
2023/01/11 03:00:40;;;;;;;3.67;2.35;;;;;;;6.74;44.53;101632.69;5028188;28;20114;-78
2023/01/11 03:03:17;;;;;;;8.07;2.42;;;;;;;7.31;44.58;101720.13;5022188;28;20057;-78
2023/01/11 03:06:10;;;;;;;6.65;3.03;;;;;;;7.01;45.32;101683.94;5026667;28;20237;-80
2023/01/11 03:08:45;;;;;;;4.95;2.58;;;;;;;7.14;45.41;101714.94;5028006;28;20092;-79
2023/01/11 03:12:50;;;;;;;4.80;2.65;;;;;;;7.04;44.03;101696.97;5032723;28;20304;-79
2023/01/11 03:14:33;;;;;;;4.82;2.33;;;;;;;6.94;43.86;101698.44;5021200;28;20052;-80
2023/01/11 03:17:14;;;;;;;3.83;2.42;;;;;;;6.88;44.88;101693.50;4991806;28;20273;-78
2023/01/11 03:19:53;;;;;;;5.07;2.35;;;;;;;6.98;44.13;101718.44;5024093;28;20072;-79
2023/01/11 03:22:56;;;;;;;5.68;2.40;;;;;;;6.57;43.82;101650.31;5019095;28;20446;-78
2023/01/11 03:26:00;;;;;;;4.60;2.88;;;;;;;6.96;45.72;101714.19;5016659;28;20128;-77
2023/01/11 03:28:52;;;;;;;7.88;2.80;;;;;;;6.84;45.34;101686.66;5014361;28;20077;-77
2023/01/11 03:31:39;;;;;;;6.28;2.95;;;;;;;6.96;44.66;101701.81;5014738;28;20130;-79
2023/01/11 03:34:25;;;;;;;8.43;2.83;;;;;;;7.00;44.23;101718.34;5016237;28;20114;-78
2023/01/11 03:36:57;;;;;;;6.32;2.33;;;;;;;6.99;44.80;101714.00;5005777;28;20060;-79
2023/01/11 03:39:32;;;;;;;4.80;2.40;;;;;;;6.97;44.10;101714.09;5035729;28;20253;-79
2023/01/11 03:42:04;;;;;;;5.35;2.42;;;;;;;6.73;44.74;101662.69;4997058;28;20297;-78
2023/01/11 03:44:45;;;;;;;3.83;2.30;;;;;;;7.01;43.66;101704.19;4997053;28;20053;-79
2023/01/11 03:47:15;;;;;;;6.18;2.47;;;;;;;6.92;43.78;101700.31;4998059;28;20370;-79
2023/01/11 03:49:58;;;;;;;5.40;2.20;;;;;;;6.96;44.41;101707.09;4994398;28;20108;-78
2023/01/11 03:52:32;;;;;;;3.67;2.42;;;;;;;6.92;43.98;101696.78;4995926;28;20054;-79
2023/01/11 03:55:02;;;;;;;3.72;2.40;;;;;;;6.60;44.45;101650.19;5014593;28;20383;-80
2023/01/11 03:57:41;;;;;;;4.38;2.22;;;;;;;7.00;43.88;101732.41;5013208;28;20237;-79
2023/01/11 04:00:11;;;;;;;3.30;1.92;;;;;;;6.93;44.70;101712.56;5019891;28;20069;-80
2023/01/11 04:02:44;;;;;;;4.72;2.30;;;;;;;6.95;44.61;101730.97;5018224;28;20054;-78
2023/01/11 04:05:37;;;;;;;6.65;2.28;;;;;;;6.94;44.18;101726.59;5015430;28;20076;-78
2023/01/11 04:08:04;;;;;;;6.03;2.42;;;;;;;6.85;44.82;101709.50;5016106;28;20519;-79
2023/01/11 04:10:33;;;;;;;3.85;2.20;;;;;;;6.86;46.10;101719.13;5014665;28;20048;-80
2023/01/11 04:13:07;;;;;;;7.97;2.53;;;;;;;6.85;45.83;101710.34;5015792;28;20156;-76
2023/01/11 04:15:34;;;;;;;10.60;2.00;;;;;;;6.68;45.93;101685.84;5010647;28;20103;-78
2023/01/11 04:18:03;;;;;;;3.60;2.42;;;;;;;6.84;46.29;101715.69;5013056;28;20144;-79
2023/01/11 04:20:32;;;;;;;5.53;2.10;;;;;;;6.79;45.95;101715.09;5014050;28;20064;-77
2023/01/11 04:22:59;;;;;;;6.35;2.58;;;;;;;6.71;45.35;101709.41;5012576;28;20107;-78
2023/01/11 04:25:32;;;;;;;5.85;2.60;;;;;;;6.69;44.60;101703.38;5015702;28;20119;-78
2023/01/11 04:28:02;;;;;;;4.60;2.72;;;;;;;6.50;44.44;101671.84;5014252;28;20383;-78
2023/01/11 04:30:32;;;;;;;5.20;2.17;;;;;;;6.07;44.55;101609.13;5015416;28;20045;-77
2023/01/11 04:33:05;;;;;;;4.53;2.42;;;;;;;6.66;44.09;101700.91;4996735;28;20049;-78
2023/01/11 04:35:31;;;;;;;6.25;2.03;;;;;;;6.73;44.09;101715.47;5025920;28;20749;-77
2023/01/11 04:37:58;;;;;;;6.32;2.28;;;;;;;6.75;43.72;101722.38;5009725;28;20061;-78
2023/01/11 04:40:25;;;;;;;3.22;2.13;;;;;;;6.66;45.42;101695.63;4989299;28;20356;-78
2023/01/11 04:42:52;;;;;;;3.70;2.30;;;;;;;6.68;45.63;101696.41;4990006;28;20488;-80
2023/01/11 04:45:19;;;;;;;4.68;1.90;;;;;;;6.78;44.66;101718.69;4993448;28;20077;-79
2023/01/11 04:47:53;;;;;;;3.38;2.10;;;;;;;6.76;44.69;101715.28;4991452;28;20532;-79
2023/01/11 04:50:24;;;;;;;8.05;2.47;;;;;;;6.78;44.41;101718.69;4990404;28;20528;-79
2023/01/11 04:52:54;;;;;;;6.88;2.50;;;;;;;6.80;44.77;101722.13;4998616;28;20045;-79
2023/01/11 04:55:24;;;;;;;3.63;2.10;;;;;;;6.70;43.81;101710.34;5009114;28;20325;-78
2023/01/11 04:57:51;;;;;;;5.80;2.58;;;;;;;6.72;44.43;101732.22;5009690;28;20295;-79
2023/01/11 05:00:18;;;;;;;3.35;2.13;;;;;;;6.70;44.80;101732.31;5010835;28;20085;-78
2023/01/11 05:02:45;;;;;;;5.93;2.03;;;;;;;6.71;44.49;101722.59;5010817;28;20483;-78
2023/01/11 05:05:14;;;;;;;4.68;2.22;;;;;;;6.60;44.57;101718.78;5014381;28;20071;-78
2023/01/11 05:07:41;;;;;;;4.00;2.00;;;;;;;6.64;45.13;101722.09;5012197;28;20069;-77
2023/01/11 05:10:08;;;;;;;3.75;2.03;;;;;;;6.72;44.65;101732.22;5010039;28;20049;-80
2023/01/11 05:12:35;;;;;;;4.35;1.95;;;;;;;6.72;44.85;101733.06;5011406;28;20080;-79
2023/01/11 05:15:06;;;;;;;7.43;2.13;;;;;;;6.57;44.01;101700.44;5016014;28;20551;-79
2023/01/11 05:17:34;;;;;;;5.40;2.33;;;;;;;6.56;44.13;101709.31;5010753;28;20084;-79
2023/01/11 05:20:01;;;;;;;7.68;3.10;;;;;;;6.69;44.63;101719.19;5013219;28;20124;-80
2023/01/11 05:22:32;;;;;;;5.22;2.30;;;;;;;6.69;44.22;101720.03;5018636;28;20171;-80
2023/01/11 05:24:59;;;;;;;3.28;2.08;;;;;;;6.56;43.08;101698.75;5016768;28;20547;-78
2023/01/11 05:27:28;;;;;;;4.53;2.08;;;;;;;6.71;43.22;101712.06;5014291;28;20071;-78
2023/01/11 05:29:55;;;;;;;11.13;2.28;;;;;;;6.07;43.53;101601.22;5013341;28;20139;-78
2023/01/11 05:32:27;;;;;;;3.75;2.00;;;;;;;6.60;44.24;101679.19;5022906;28;20045;-79
2023/01/11 05:34:56;;;;;;;4.22;2.35;;;;;;;6.83;43.67;101717.50;5017851;28;20068;-78
2023/01/11 05:37:29;;;;;;;5.32;2.10;;;;;;;6.79;43.84;101712.47;5015005;28;20050;-77
2023/01/11 05:40:05;;;;;;;9.98;2.33;;;;;;;5.90;43.22;101567.81;4991689;28;20055;-77
2023/01/11 05:42:34;;;;;;;4.05;2.33;;;;;;;6.87;43.76;101719.97;5008872;28;20046;-80
2023/01/11 05:48:07;;;;;;;3.63;2.10;;;;;;;6.79;43.00;101704.56;4936449;29;20392;-79
2023/01/11 05:50:34;;;;;;;3.10;1.73;;;;;;;6.83;43.87;101727.22;4992998;28;20108;-78
2023/01/11 05:53:09;;;;;;;3.72;2.00;;;;;;;5.98;43.43;101572.72;5015577;28;20046;-77
2023/01/11 05:55:35;;;;;;;3.55;1.98;;;;;;;6.67;43.73;101692.88;5012351;28;20146;-79
2023/01/11 05:58:07;;;;;;;3.67;2.00;;;;;;;6.19;43.02;101621.66;5013247;28;20214;-77
2023/01/11 06:00:34;;;;;;;5.78;2.15;;;;;;;6.80;43.63;101722.13;5009967;28;20049;-79
2023/01/11 06:03:01;;;;;;;4.75;2.10;;;;;;;6.76;43.27;101720.56;5011849;28;20068;-78
2023/01/11 06:05:28;;;;;;;6.53;4.20;;;;;;;6.70;42.98;101702.41;5009195;28;20592;-79
2023/01/11 06:07:57;;;;;;;5.90;2.60;;;;;;;6.76;44.15;101713.50;5031361;28;20037;-79
2023/01/11 06:10:23;;;;;;;12.55;5.47;;;;;;;6.78;44.80;101713.41;5013892;28;20076;-77
2023/01/11 06:15:48;;;;;;;8.88;3.03;;;;;;;6.62;44.21;101685.22;5014864;28;20041;-78
2023/01/11 06:18:14;;;;;;;5.60;2.80;;;;;;;6.25;43.81;101630.16;4993932;28;20430;-79
2023/01/11 06:20:41;;;;;;;5.75;2.53;;;;;;;6.67;43.80;101710.50;4994315;28;20503;-78
2023/01/11 06:23:08;;;;;;;8.23;6.18;;;;;;;6.64;44.61;101712.38;5004403;28;20484;-79
2023/01/11 06:25:37;;;;;;;8.20;3.70;;;;;;;6.61;44.80;101691.44;5013640;28;20049;-79
2023/01/11 06:28:04;;;;;;;9.45;3.25;;;;;;;6.67;44.81;101699.97;5010304;28;20072;-79
2023/01/11 06:30:33;;;;;;;7.82;3.50;;;;;;;6.67;45.44;101692.88;5011573;28;20415;-79
2023/01/11 06:33:06;;;;;;;9.25;3.65;;;;;;;6.69;45.88;101692.81;5015477;28;20071;-78
2023/01/11 06:35:39;;;;;;;9.10;3.53;;;;;;;6.52;45.92;101662.91;5018419;28;20607;-78
2023/01/11 06:38:11;;;;;;;8.95;3.50;;;;;;;6.48;45.75;101653.50;5016719;28;20577;-79
2023/01/11 06:40:39;;;;;;;18.48;5.03;;;;;;;6.30;45.25;101612.28;5014449;28;20095;-79
2023/01/11 06:43:07;;;;;;;10.75;4.55;;;;;;;6.62;44.79;101666.75;5017778;28;20049;-79
2023/01/11 06:45:37;;;;;;;12.52;3.63;;;;;;;6.70;44.48;101683.94;5028605;28;20127;-78
2023/01/11 06:48:06;;;;;;;11.40;4.07;;;;;;;6.32;44.56;101626.25;5024771;28;20126;-78
2023/01/11 06:50:32;;;;;;;7.20;3.60;;;;;;;6.61;44.26;101672.97;5012608;28;20624;-77
2023/01/11 06:53:05;;;;;;;11.13;3.10;;;;;;;6.54;44.03;101658.41;5010977;28;22430;-79
2023/01/11 06:55:32;;;;;;;6.05;3.25;;;;;;;6.59;44.95;101664.28;5012134;28;20046;-79
2023/01/11 06:58:02;;;;;;;7.25;2.70;;;;;;;6.70;45.50;101686.59;4997511;28;20401;-78
2023/01/11 07:00:32;;;;;;;7.88;3.08;;;;;;;6.59;44.79;101666.94;5012244;28;20045;-77
2023/01/11 07:03:04;;;;;;;9.43;3.20;;;;;;;6.63;45.86;101668.47;5013100;28;20606;-77
2023/01/11 07:05:37;;;;;;;;;;;;;;;6.79;46.26;101688.72;5012188;28;20262;-79
2023/01/11 07:08:13;;;;;;;6.65;3.97;;;;;;;6.79;46.53;101694.84;5010342;28;19932;-77
2023/01/11 07:10:41;;;;;;;28.42;5.43;;;;;;;6.83;46.61;101696.38;5011167;28;20447;-78
2023/01/11 07:13:16;;;;;;;27.27;5.30;;;;;;;6.66;46.65;101662.16;5012532;28;20717;-79
2023/01/11 07:15:49;;;;;;;693.97;111.07;;;;;;;6.82;47.67;101688.53;5015095;28;20315;-77
2023/01/11 07:18:22;;;;;;;168.93;24.33;;;;;;;7.11;51.13;101662.28;4994443;28;20061;-79
2023/01/11 07:20:52;;;;;;;40.40;8.23;;;;;;;7.19;49.60;101644.22;4997778;28;20042;-80
2023/01/11 07:23:19;;;;;;;12.00;5.07;;;;;;;7.24;47.44;101664.13;5016587;28;20476;-80
2023/01/11 07:25:48;;;;;;;33.63;7.47;;;;;;;7.15;47.35;101658.53;5021426;28;20037;-77
2023/01/11 07:28:15;;;;;;;569.20;80.55;;;;;;;7.42;50.78;101687.78;5019712;28;20059;-79
2023/01/11 07:30:43;;;;;;;341.75;46.13;;;;;;;7.59;50.26;101673.56;5016397;28;20064;-78
2023/01/11 07:33:24;;;;;;;248.90;32.10;;;;;;;7.81;50.79;101689.84;5015572;28;20471;-79
2023/01/11 07:35:51;;;;;;;96.13;15.43;;;;;;;7.70;48.82;101681.72;5016743;28;20400;-77
2023/01/11 07:38:22;;;;;;;23.75;7.63;;;;;;;7.70;47.62;101684.38;5032735;28;20057;-77
2023/01/11 07:40:48;;;;;;;107.57;16.58;;;;;;;7.73;48.26;101696.56;5013643;28;20054;-82
2023/01/11 07:43:21;;;;;;;21.92;8.95;;;;;;;7.55;47.81;101662.34;5011996;28;20068;-77
2023/01/11 07:45:51;;;;;;;70.05;12.90;;;;;;;7.75;49.12;101684.94;5015673;28;20144;-78
2023/01/11 07:48:25;;;;;;;23.52;7.88;;;;;;;7.47;47.29;101673.34;5014234;28;20164;-76
2023/01/11 07:50:57;;;;;;;29.15;8.20;;;;;;;7.52;46.99;101709.22;5014074;28;20049;-79
2023/01/11 07:53:25;;;;;;;21.20;8.07;;;;;;;7.47;46.93;101728.84;5013786;28;20046;-79
2023/01/11 07:56:00;;;;;;;19.75;7.53;;;;;;;7.20;46.78;101701.38;5020416;28;20045;-78
2023/01/11 07:58:27;;;;;;;14.50;7.13;;;;;;;7.06;47.30;101676.63;5020770;28;20057;-80
2023/01/11 08:00:54;;;;;;;61.65;11.75;;;;;;;7.13;48.36;101686.81;5012653;28;20268;-80
2023/01/11 08:03:24;;;;;;;30.00;9.02;;;;;;;7.20;47.38;101699.56;5016306;28;20153;-80
2023/01/11 08:05:53;;;;;;;26.70;8.88;;;;;;;7.41;46.11;101733.66;5020355;28;20084;-78
2023/01/11 08:08:22;;;;;;;33.35;8.80;;;;;;;7.30;45.43;101709.63;4959237;28;20724;-78
2023/01/11 08:16:38;;;;;;;25.67;7.07;;;;;;;8.27;46.64;101745.25;4935955;28;20089;-78
2023/01/11 08:19:07;;;;;;;13.02;6.68;;;;;;;7.96;45.72;101708.38;4904782;28;20055;-79
2023/01/11 08:21:33;;;;;;;21.50;6.95;;;;;;;7.88;46.44;101728.19;4986975;28;20121;-79
2023/01/11 08:24:00;;;;;;;14.85;6.93;;;;;;;7.91;45.59;101759.78;4993054;28;20046;-80
2023/01/11 08:26:30;;;;;;;13.18;6.90;;;;;;;7.68;44.63;101731.19;4992600;28;20133;-79
2023/01/11 08:28:57;;;;;;;13.00;6.45;;;;;;;7.22;44.88;101741.75;4992433;28;20543;-80
2023/01/11 08:31:24;;;;;;;30.30;9.13;;;;;;;7.11;49.92;101768.75;4992146;28;20046;-79
2023/01/11 08:33:51;;;;;;;15.60;7.00;;;;;;;7.00;47.22;101761.44;4920709;28;20059;-80
2023/01/11 08:36:18;;;;;;;21.77;7.97;;;;;;;6.89;47.32;101747.97;4963362;28;20039;-77
2023/01/11 08:38:46;;;;;;;13.75;6.35;;;;;;;7.06;47.19;101784.88;4974691;28;20136;-80
2023/01/11 08:41:13;;;;;;;22.13;7.47;;;;;;;7.63;49.03;101778.19;4975544;28;20058;-77
2023/01/11 08:43:40;;;;;;;17.50;7.38;;;;;;;7.43;47.98;101758.19;4973512;28;20112;-78
2023/01/11 08:46:08;;;;;;;20.95;7.40;;;;;;;7.56;49.03;101796.16;4973133;28;20534;-77
2023/01/11 08:48:36;;;;;;;28.70;8.05;;;;;;;7.85;51.87;101801.56;4978911;28;20519;-78
2023/01/11 08:51:06;;;;;;;17.58;5.97;;;;;;;8.28;48.27;101797.25;4986972;28;20054;-78
2023/01/11 08:53:33;;;;;;;12.70;5.68;;;;;;;7.65;48.21;101713.72;4984886;28;20046;-78
2023/01/11 08:56:00;;;;;;;17.33;5.93;;;;;;;8.11;45.56;101805.34;4972941;28;20424;-78
2023/01/11 08:58:26;;;;;;;16.80;5.93;;;;;;;7.34;49.09;101659.16;4973852;28;20082;-77
2023/01/11 09:00:56;;;;;;;12.70;5.53;;;;;;;8.14;45.61;101802.50;4975828;28;20512;-77
2023/01/11 09:03:25;;;;;;;9.43;5.93;;;;;;;8.06;48.60;101789.72;4974200;28;20120;-77
2023/01/11 09:05:52;;;;;;;13.77;5.63;;;;;;;8.18;49.87;101777.56;4977157;28;20301;-77
2023/01/11 09:08:19;;;;;;;15.80;6.07;;;;;;;8.67;52.26;101806.38;4982163;28;20050;-78
2023/01/11 09:10:48;;;;;;;17.00;5.53;;;;;;;9.08;52.85;101810.88;4958288;28;20137;-78
2023/01/11 09:13:14;;;;;;;11.88;5.93;;;;;;;8.87;47.70;101733.63;4974561;28;20152;-76
2023/01/11 09:15:45;;;;;;;15.05;5.57;;;;;;;9.05;44.83;101795.16;4973483;28;20567;-78
2023/01/11 09:18:13;;;;;;;11.40;4.97;;;;;;;8.75;44.83;101782.91;4974189;28;20050;-78
2023/01/11 09:20:41;;;;;;;13.18;5.90;;;;;;;8.63;44.15;101810.13;4969833;28;20456;-78
2023/01/11 09:23:13;;;;;;;11.50;6.32;;;;;;;8.39;44.60;101801.03;4973861;28;20133;-77
2023/01/11 09:25:43;;;;;;;13.43;6.05;;;;;;;8.17;44.31;101775.84;4974830;28;20058;-77
2023/01/11 09:28:11;;;;;;;19.38;7.30;;;;;;;8.34;44.57;101817.16;4973978;28;20118;-77
2023/01/11 09:30:38;;;;;;;21.70;6.50;;;;;;;8.14;45.00;101787.47;4974246;28;20547;-79
2023/01/11 09:33:05;;;;;;;16.27;6.88;;;;;;;8.29;44.58;101822.72;4973170;28;20046;-78
2023/01/11 09:35:37;;;;;;;15.68;6.97;;;;;;;8.18;45.07;101790.81;4973689;28;20256;-79
2023/01/11 09:38:07;;;;;;;19.70;7.50;;;;;;;8.41;46.65;101797.38;4971599;28;20054;-80
2023/01/11 09:40:49;;;;;;;11.75;6.35;;;;;;;8.62;46.34;101820.84;4972702;28;20137;-78
2023/01/11 09:43:19;;;;;;;;;;;;;;;8.66;44.54;101815.25;4972806;28;20380;-79
2023/01/11 09:45:49;;;;;;;20.65;6.85;;;;;;;8.82;47.37;101811.66;4981735;28;19948;-79
2023/01/11 09:48:27;;;;;;;22.85;7.32;;;;;;;8.95;43.73;101810.78;4985493;28;20118;-79
2023/01/11 09:51:03;;;;;;;14.98;6.43;;;;;;;8.67;43.28;101765.81;4944110;28;20058;-79
2023/01/11 09:53:37;;;;;;;18.77;7.35;;;;;;;8.31;44.14;101735.34;4977001;28;20058;-79
2023/01/11 09:56:22;;;;;;;20.23;6.78;;;;;;;8.86;43.37;101807.84;4911527;28;20083;-80
2023/01/11 09:59:08;;;;;;;13.13;6.82;;;;;;;8.81;44.22;101802.00;4897450;28;20243;-79
2023/01/11 10:02:13;;;;;;;18.27;8.43;;;;;;;8.92;43.21;101794.25;4906577;28;20286;-78
2023/01/11 10:05:37;;;;;;;15.02;8.77;;;;;;;8.95;43.42;101788.75;4934936;28;20057;-80
2023/01/11 10:08:18;;;;;;;12.90;7.22;;;;;;;8.93;41.68;101767.69;4922317;28;20350;-78
2023/01/11 10:11:09;;;;;;;;;;;;;;;9.20;40.19;101788.06;4939981;28;20049;-76
2023/01/11 10:14:20;;;;;;;13.38;5.07;;;;;;;9.12;39.83;101775.28;4945232;28;19948;-77
2023/01/11 10:17:40;;;;;;;13.25;5.80;;;;;;;9.17;39.33;101786.44;4922312;28;20559;-78
2023/01/11 10:21:00;;;;;;;11.10;6.25;;;;;;;9.11;39.20;101781.53;4973119;28;20496;-79
2023/01/11 10:24:10;;;;;;;9.00;5.45;;;;;;;9.09;39.56;101780.78;4925854;28;20555;-78
2023/01/11 10:27:36;;;;;;;11.52;5.80;;;;;;;8.93;37.92;101756.19;4949003;28;20057;-77
2023/01/11 10:31:00;;;;;;;20.10;6.25;;;;;;;8.70;38.76;101726.75;4893904;28;20529;-76
2023/01/11 10:34:17;;;;;;;10.95;6.65;;;;;;;9.06;38.77;101770.38;4910612;29;20055;-78
2023/01/11 10:37:49;;;;;;;13.10;7.65;;;;;;;9.11;38.43;101768.28;4888129;28;20890;-77
2023/01/11 10:41:14;;;;;;;17.52;7.43;;;;;;;9.29;37.46;101760.94;4844975;29;20090;-78
2023/01/11 10:43:58;;;;;;;12.45;6.80;;;;;;;9.34;37.95;101766.78;4826455;29;20052;-77
2023/01/11 10:47:12;;;;;;;14.10;8.65;;;;;;;9.34;37.29;101753.53;4836178;29;20725;-77
2023/01/11 10:50:27;;;;;;;16.50;8.68;;;;;;;9.39;37.62;101756.75;4876186;29;20212;-78
2023/01/11 10:53:33;;;;;;;13.10;8.57;;;;;;;9.45;37.79;101760.81;4899394;29;20307;-75
2023/01/11 10:56:04;;;;;;;11.38;8.05;;;;;;;9.25;38.24;101718.84;4892743;29;20363;-79
2023/01/11 10:59:02;;;;;;;13.15;8.30;;;;;;;9.66;38.09;101755.88;4916046;28;20185;-77
2023/01/11 11:05:10;;;;;;;14.68;8.77;;;;;;;9.80;37.61;101744.34;5026578;28;20049;-78
2023/01/11 11:08:15;;;;;;;15.43;8.80;;;;;;;9.93;37.44;101734.59;5033381;28;20064;-77
2023/01/11 11:10:52;;;;;;;19.33;9.10;;;;;;;8.96;37.33;101538.88;4977574;28;20067;-76
2023/01/11 11:13:34;;;;;;;17.88;9.02;;;;;;;10.19;36.96;101721.34;5059083;28;20041;-79
2023/01/11 11:16:22;;;;;;;16.17;9.32;;;;;;;10.43;36.21;101735.56;4965456;28;20477;-78
2023/01/11 11:18:57;;;;;;;14.52;8.48;;;;;;;10.03;38.17;101644.63;5024167;28;20041;-78
2023/01/11 11:21:29;;;;;;;20.10;9.90;;;;;;;10.43;36.03;101690.44;5027372;28;20061;-77
2023/01/11 11:24:00;;;;;;;16.05;9.18;;;;;;;10.47;36.70;101701.72;5027249;28;20052;-78
2023/01/11 11:26:40;;;;;;;18.10;9.05;;;;;;;10.44;37.84;101692.16;5028719;28;20093;-78
2023/01/11 11:29:09;;;;;;;11.43;8.52;;;;;;;10.35;37.01;101668.91;5027239;28;20042;-78
2023/01/11 11:31:42;;;;;;;13.70;8.15;;;;;;;10.48;35.62;101693.66;5027818;28;20049;-77
2023/01/11 11:34:19;;;;;;;18.35;9.30;;;;;;;10.59;35.95;101710.63;5039494;28;20308;-78
2023/01/11 11:36:51;;;;;;;20.27;7.57;;;;;;;10.58;36.15;101706.25;5036537;28;20103;-77
2023/01/11 11:39:22;;;;;;;12.05;7.47;;;;;;;10.59;36.20;101689.38;5029744;28;20454;-78
2023/01/11 11:42:03;;;;;;;11.95;8.07;;;;;;;10.65;35.54;101700.38;5027323;28;20442;-79
2023/01/11 11:44:30;;;;;;;13.85;7.47;;;;;;;10.28;37.03;101638.47;5027053;28;20049;-78
2023/01/11 11:46:58;;;;;;;15.80;7.85;;;;;;;10.17;36.00;101609.13;5027676;28;20537;-78
2023/01/11 11:49:25;;;;;;;21.60;7.30;;;;;;;10.74;36.46;101680.28;5027119;28;20053;-78
2023/01/11 11:51:53;;;;;;;12.65;8.25;;;;;;;10.80;35.43;101677.19;5026433;28;20041;-79
2023/01/11 11:54:28;;;;;;;12.68;7.07;;;;;;;10.74;35.60;101677.63;5026775;28;20445;-78
2023/01/11 11:56:57;;;;;;;13.52;8.27;;;;;;;10.64;35.78;101647.41;5025439;28;20118;-78
2023/01/11 11:59:28;;;;;;;20.30;8.35;;;;;;;10.79;37.84;101680.81;5013283;28;20136;-78
2023/01/11 12:01:59;;;;;;;15.38;8.23;;;;;;;10.06;37.54;101549.72;5008509;28;20053;-78
2023/01/11 12:04:45;;;;;;;10.38;8.23;;;;;;;10.75;37.57;101647.44;5032176;28;20061;-78
2023/01/11 12:07:17;;;;;;;19.85;9.55;;;;;;;10.82;38.37;101664.63;5036601;28;20280;-78
2023/01/11 12:09:57;;;;;;;15.05;9.32;;;;;;;10.75;38.44;101646.59;5040295;28;20037;-80
2023/01/11 12:12:26;;;;;;;15.70;8.88;;;;;;;10.84;39.38;101628.19;5041227;28;20049;-79
2023/01/11 12:15:20;;;;;;;14.27;8.68;;;;;;;10.43;38.49;101560.38;5026919;28;20061;-77
2023/01/11 12:17:53;;;;;;;19.33;9.15;;;;;;;11.01;39.03;101648.19;5024763;28;20047;-77
2023/01/11 12:20:21;;;;;;;14.88;10.00;;;;;;;11.03;38.73;101645.44;5023864;28;20042;-78
2023/01/11 12:23:11;;;;;;;18.00;9.93;;;;;;;10.98;38.74;101626.31;5005172;28;20392;-79
2023/01/11 12:26:05;;;;;;;14.07;8.57;;;;;;;11.08;37.44;101644.13;5016292;28;20411;-78
2023/01/11 12:28:54;;;;;;;14.27;8.50;;;;;;;10.95;38.91;101647.78;5004543;28;20136;-79
2023/01/11 12:31:49;;;;;;;18.30;9.02;;;;;;;10.96;39.88;101644.19;5007695;28;20600;-78
2023/01/11 12:34:33;;;;;;;17.63;10.57;;;;;;;10.84;37.56;101614.06;5013687;28;20042;-78
2023/01/11 12:37:11;;;;;;;12.73;7.13;;;;;;;10.65;39.11;101585.34;5017611;28;20049;-77
2023/01/11 12:39:51;;;;;;;22.38;10.20;;;;;;;10.83;38.24;101615.88;5014855;28;20102;-78